sensor_id;sensor_type;location;lat;lon;timestamp;P1;durP1;ratioP1;P2;durP2;ratioP2
71610;SDS011;59459;51.172;6.682;2023-06-26T00:01:25;9.97;;;5.90;;
71610;SDS011;59459;51.172;6.682;2023-06-26T00:03:54;10.95;;;6.18;;
71610;SDS011;59459;51.172;6.682;2023-06-26T00:06:19;9.50;;;5.20;;
71610;SDS011;59459;51.172;6.682;2023-06-26T00:08:44;8.90;;;5.67;;
71610;SDS011;59459;51.172;6.682;2023-06-26T00:11:10;9.63;;;5.65;;
71610;SDS011;59459;51.172;6.682;2023-06-26T00:13:35;9.30;;;5.83;;
71610;SDS011;59459;51.172;6.682;2023-06-26T00:16:01;10.40;;;6.03;;
71610;SDS011;59459;51.172;6.682;2023-06-26T00:18:28;9.82;;;5.78;;
71610;SDS011;59459;51.172;6.682;2023-06-26T00:20:53;8.93;;;5.20;;
71610;SDS011;59459;51.172;6.682;2023-06-26T00:23:18;9.90;;;5.53;;
71610;SDS011;59459;51.172;6.682;2023-06-26T00:25:44;10.17;;;5.73;;
71610;SDS011;59459;51.172;6.682;2023-06-26T00:28:09;13.70;;;6.73;;
71610;SDS011;59459;51.172;6.682;2023-06-26T00:30:34;10.73;;;6.70;;
71610;SDS011;59459;51.172;6.682;2023-06-26T00:32:59;11.23;;;5.83;;
71610;SDS011;59459;51.172;6.682;2023-06-26T00:35:25;10.47;;;6.33;;
71610;SDS011;59459;51.172;6.682;2023-06-26T00:37:50;10.50;;;5.90;;
71610;SDS011;59459;51.172;6.682;2023-06-26T00:40:15;10.20;;;5.93;;
71610;SDS011;59459;51.172;6.682;2023-06-26T00:42:43;9.43;;;5.40;;
71610;SDS011;59459;51.172;6.682;2023-06-26T00:45:08;11.10;;;6.67;;
71610;SDS011;59459;51.172;6.682;2023-06-26T00:47:33;10.80;;;6.53;;
71610;SDS011;59459;51.172;6.682;2023-06-26T00:49:58;10.20;;;5.82;;
71610;SDS011;59459;51.172;6.682;2023-06-26T00:52:24;10.37;;;6.17;;
71610;SDS011;59459;51.172;6.682;2023-06-26T00:54:50;10.93;;;6.20;;
71610;SDS011;59459;51.172;6.682;2023-06-26T00:57:16;10.52;;;6.32;;
71610;SDS011;59459;51.172;6.682;2023-06-26T00:59:41;10.50;;;6.13;;
71610;SDS011;59459;51.172;6.682;2023-06-26T01:02:07;11.47;;;6.33;;
71610;SDS011;59459;51.172;6.682;2023-06-26T01:04:32;9.63;;;6.10;;
71610;SDS011;59459;51.172;6.682;2023-06-26T01:06:57;10.93;;;6.07;;
71610;SDS011;59459;51.172;6.682;2023-06-26T01:09:24;9.07;;;6.00;;
71610;SDS011;59459;51.172;6.682;2023-06-26T01:11:49;8.77;;;5.73;;
71610;SDS011;59459;51.172;6.682;2023-06-26T01:14:15;11.07;;;5.93;;
71610;SDS011;59459;51.172;6.682;2023-06-26T01:16:40;10.13;;;6.30;;
71610;SDS011;59459;51.172;6.682;2023-06-26T01:19:08;11.52;;;6.35;;
71610;SDS011;59459;51.172;6.682;2023-06-26T01:21:35;10.75;;;6.43;;
71610;SDS011;59459;51.172;6.682;2023-06-26T01:24:12;9.65;;;5.60;;
71610;SDS011;59459;51.172;6.682;2023-06-26T01:26:39;12.77;;;6.25;;
71610;SDS011;59459;51.172;6.682;2023-06-26T01:29:06;9.37;;;5.67;;
71610;SDS011;59459;51.172;6.682;2023-06-26T01:31:32;9.60;;;6.00;;
71610;SDS011;59459;51.172;6.682;2023-06-26T01:33:58;9.93;;;6.23;;
71610;SDS011;59459;51.172;6.682;2023-06-26T01:36:24;9.32;;;6.38;;
71610;SDS011;59459;51.172;6.682;2023-06-26T01:38:49;10.30;;;6.37;;
71610;SDS011;59459;51.172;6.682;2023-06-26T01:41:16;12.85;;;5.97;;
71610;SDS011;59459;51.172;6.682;2023-06-26T01:46:25;8.70;;;5.55;;
71610;SDS011;59459;51.172;6.682;2023-06-26T01:49:36;10.07;;;5.82;;
71610;SDS011;59459;51.172;6.682;2023-06-26T01:51:42;11.93;;;6.10;;
71610;SDS011;59459;51.172;6.682;2023-06-26T01:54:09;10.17;;;5.60;;
71610;SDS011;59459;51.172;6.682;2023-06-26T01:56:35;9.15;;;5.85;;
71610;SDS011;59459;51.172;6.682;2023-06-26T01:59:02;11.23;;;6.38;;
71610;SDS011;59459;51.172;6.682;2023-06-26T02:01:30;9.68;;;5.93;;
71610;SDS011;59459;51.172;6.682;2023-06-26T02:03:58;10.00;;;5.70;;
71610;SDS011;59459;51.172;6.682;2023-06-26T02:06:23;11.93;;;6.03;;
71610;SDS011;59459;51.172;6.682;2023-06-26T02:08:48;9.73;;;5.73;;
71610;SDS011;59459;51.172;6.682;2023-06-26T02:11:13;10.67;;;5.80;;
71610;SDS011;59459;51.172;6.682;2023-06-26T02:13:39;11.10;;;6.37;;
71610;SDS011;59459;51.172;6.682;2023-06-26T02:16:04;12.37;;;6.17;;
71610;SDS011;59459;51.172;6.682;2023-06-26T02:18:29;9.17;;;6.10;;
71610;SDS011;59459;51.172;6.682;2023-06-26T02:20:54;10.33;;;5.67;;
71610;SDS011;59459;51.172;6.682;2023-06-26T02:23:19;9.83;;;6.30;;
71610;SDS011;59459;51.172;6.682;2023-06-26T02:25:45;11.13;;;6.47;;
71610;SDS011;59459;51.172;6.682;2023-06-26T02:28:10;10.50;;;6.13;;
71610;SDS011;59459;51.172;6.682;2023-06-26T02:30:35;12.00;;;5.63;;
71610;SDS011;59459;51.172;6.682;2023-06-26T02:33:00;9.30;;;5.47;;
71610;SDS011;59459;51.172;6.682;2023-06-26T02:35:25;9.20;;;5.27;;
71610;SDS011;59459;51.172;6.682;2023-06-26T02:37:51;10.60;;;6.03;;
71610;SDS011;59459;51.172;6.682;2023-06-26T02:40:16;10.00;;;5.47;;
71610;SDS011;59459;51.172;6.682;2023-06-26T02:42:41;9.17;;;5.67;;
71610;SDS011;59459;51.172;6.682;2023-06-26T02:45:06;11.40;;;5.83;;
71610;SDS011;59459;51.172;6.682;2023-06-26T02:47:32;9.60;;;5.67;;
71610;SDS011;59459;51.172;6.682;2023-06-26T02:49:57;9.70;;;5.50;;
71610;SDS011;59459;51.172;6.682;2023-06-26T02:52:22;9.77;;;5.70;;
71610;SDS011;59459;51.172;6.682;2023-06-26T02:54:47;9.60;;;6.07;;
71610;SDS011;59459;51.172;6.682;2023-06-26T02:57:13;8.93;;;5.30;;
71610;SDS011;59459;51.172;6.682;2023-06-26T02:59:39;9.82;;;5.93;;
71610;SDS011;59459;51.172;6.682;2023-06-26T03:02:04;8.97;;;5.53;;
71610;SDS011;59459;51.172;6.682;2023-06-26T03:04:30;10.83;;;5.97;;
71610;SDS011;59459;51.172;6.682;2023-06-26T03:06:56;10.70;;;6.13;;
71610;SDS011;59459;51.172;6.682;2023-06-26T03:09:21;10.27;;;5.47;;
71610;SDS011;59459;51.172;6.682;2023-06-26T03:11:47;9.80;;;5.60;;
71610;SDS011;59459;51.172;6.682;2023-06-26T03:14:12;10.90;;;5.90;;
71610;SDS011;59459;51.172;6.682;2023-06-26T03:16:37;12.03;;;6.20;;
71610;SDS011;59459;51.172;6.682;2023-06-26T03:19:02;11.17;;;6.00;;
71610;SDS011;59459;51.172;6.682;2023-06-26T03:21:28;9.03;;;5.27;;
71610;SDS011;59459;51.172;6.682;2023-06-26T03:23:53;10.93;;;5.60;;
71610;SDS011;59459;51.172;6.682;2023-06-26T03:26:18;11.17;;;5.60;;
71610;SDS011;59459;51.172;6.682;2023-06-26T03:28:44;10.70;;;5.90;;
71610;SDS011;59459;51.172;6.682;2023-06-26T03:31:09;8.60;;;5.27;;
71610;SDS011;59459;51.172;6.682;2023-06-26T03:33:34;9.07;;;5.40;;
71610;SDS011;59459;51.172;6.682;2023-06-26T03:35:59;9.17;;;5.50;;
71610;SDS011;59459;51.172;6.682;2023-06-26T03:38:25;10.30;;;5.80;;
71610;SDS011;59459;51.172;6.682;2023-06-26T03:40:51;11.15;;;5.40;;
71610;SDS011;59459;51.172;6.682;2023-06-26T03:43:16;9.00;;;5.77;;
71610;SDS011;59459;51.172;6.682;2023-06-26T03:45:41;11.77;;;5.83;;
71610;SDS011;59459;51.172;6.682;2023-06-26T03:48:06;9.90;;;5.93;;
71610;SDS011;59459;51.172;6.682;2023-06-26T03:50:33;9.10;;;5.47;;
71610;SDS011;59459;51.172;6.682;2023-06-26T03:52:58;9.43;;;5.60;;
71610;SDS011;59459;51.172;6.682;2023-06-26T03:55:24;9.25;;;4.93;;
71610;SDS011;59459;51.172;6.682;2023-06-26T03:57:49;11.10;;;5.37;;
71610;SDS011;59459;51.172;6.682;2023-06-26T04:00:14;9.53;;;5.50;;
71610;SDS011;59459;51.172;6.682;2023-06-26T04:02:40;10.93;;;5.13;;
71610;SDS011;59459;51.172;6.682;2023-06-26T04:05:05;9.60;;;5.90;;
71610;SDS011;59459;51.172;6.682;2023-06-26T04:07:31;11.35;;;4.93;;
71610;SDS011;59459;51.172;6.682;2023-06-26T04:09:56;8.80;;;4.87;;
71610;SDS011;59459;51.172;6.682;2023-06-26T04:12:21;11.27;;;5.40;;
71610;SDS011;59459;51.172;6.682;2023-06-26T04:14:47;9.87;;;5.63;;
71610;SDS011;59459;51.172;6.682;2023-06-26T04:17:12;10.30;;;5.70;;
71610;SDS011;59459;51.172;6.682;2023-06-26T04:19:37;10.13;;;5.53;;
71610;SDS011;59459;51.172;6.682;2023-06-26T04:22:02;8.87;;;5.07;;
71610;SDS011;59459;51.172;6.682;2023-06-26T04:24:28;9.10;;;5.15;;
71610;SDS011;59459;51.172;6.682;2023-06-26T04:26:53;10.00;;;4.40;;
71610;SDS011;59459;51.172;6.682;2023-06-26T04:29:21;10.20;;;4.67;;
71610;SDS011;59459;51.172;6.682;2023-06-26T04:31:50;8.13;;;4.32;;
71610;SDS011;59459;51.172;6.682;2023-06-26T04:34:15;9.68;;;4.63;;
71610;SDS011;59459;51.172;6.682;2023-06-26T04:36:41;8.83;;;4.63;;
71610;SDS011;59459;51.172;6.682;2023-06-26T04:39:09;9.30;;;4.60;;
71610;SDS011;59459;51.172;6.682;2023-06-26T04:41:34;8.53;;;4.63;;
71610;SDS011;59459;51.172;6.682;2023-06-26T04:44:00;8.37;;;4.40;;
71610;SDS011;59459;51.172;6.682;2023-06-26T04:46:25;9.00;;;4.30;;
71610;SDS011;59459;51.172;6.682;2023-06-26T04:48:52;9.00;;;3.90;;
71610;SDS011;59459;51.172;6.682;2023-06-26T04:51:18;8.87;;;4.43;;
71610;SDS011;59459;51.172;6.682;2023-06-26T04:53:45;9.70;;;4.65;;
71610;SDS011;59459;51.172;6.682;2023-06-26T04:56:11;10.23;;;4.17;;
71610;SDS011;59459;51.172;6.682;2023-06-26T04:58:36;9.17;;;3.87;;
71610;SDS011;59459;51.172;6.682;2023-06-26T05:01:01;9.57;;;4.40;;
71610;SDS011;59459;51.172;6.682;2023-06-26T05:03:26;8.67;;;4.40;;
71610;SDS011;59459;51.172;6.682;2023-06-26T05:05:52;9.03;;;4.37;;
71610;SDS011;59459;51.172;6.682;2023-06-26T05:08:20;11.20;;;4.97;;
71610;SDS011;59459;51.172;6.682;2023-06-26T05:10:45;9.30;;;5.13;;
71610;SDS011;59459;51.172;6.682;2023-06-26T05:13:11;11.03;;;5.23;;
71610;SDS011;59459;51.172;6.682;2023-06-26T05:15:36;8.13;;;4.70;;
71610;SDS011;59459;51.172;6.682;2023-06-26T05:18:02;10.73;;;4.38;;
71610;SDS011;59459;51.172;6.682;2023-06-26T05:20:27;9.27;;;4.67;;
71610;SDS011;59459;51.172;6.682;2023-06-26T05:22:52;9.73;;;4.80;;
71610;SDS011;59459;51.172;6.682;2023-06-26T05:25:18;8.90;;;4.17;;
71610;SDS011;59459;51.172;6.682;2023-06-26T05:27:46;10.15;;;4.50;;
71610;SDS011;59459;51.172;6.682;2023-06-26T05:30:11;8.70;;;4.28;;
71610;SDS011;59459;51.172;6.682;2023-06-26T05:32:38;8.17;;;3.87;;
71610;SDS011;59459;51.172;6.682;2023-06-26T05:35:04;9.25;;;4.05;;
71610;SDS011;59459;51.172;6.682;2023-06-26T05:37:30;8.20;;;3.83;;
71610;SDS011;59459;51.172;6.682;2023-06-26T05:39:56;7.83;;;3.77;;
71610;SDS011;59459;51.172;6.682;2023-06-26T05:42:25;9.57;;;4.30;;
71610;SDS011;59459;51.172;6.682;2023-06-26T05:44:50;9.67;;;4.23;;
71610;SDS011;59459;51.172;6.682;2023-06-26T05:47:16;8.33;;;4.13;;
71610;SDS011;59459;51.172;6.682;2023-06-26T05:49:41;8.65;;;3.88;;
71610;SDS011;59459;51.172;6.682;2023-06-26T05:52:06;9.63;;;3.80;;
71610;SDS011;59459;51.172;6.682;2023-06-26T05:54:32;9.63;;;4.10;;
71610;SDS011;59459;51.172;6.682;2023-06-26T05:56:57;9.50;;;4.00;;
71610;SDS011;59459;51.172;6.682;2023-06-26T05:59:26;10.32;;;4.43;;
71610;SDS011;59459;51.172;6.682;2023-06-26T06:01:51;9.82;;;3.88;;
71610;SDS011;59459;51.172;6.682;2023-06-26T06:04:17;9.97;;;3.63;;
71610;SDS011;59459;51.172;6.682;2023-06-26T06:06:42;6.90;;;3.30;;
71610;SDS011;59459;51.172;6.682;2023-06-26T06:09:07;9.87;;;3.67;;
71610;SDS011;59459;51.172;6.682;2023-06-26T06:11:35;6.70;;;3.33;;
71610;SDS011;59459;51.172;6.682;2023-06-26T06:14:00;11.88;;;3.78;;
71610;SDS011;59459;51.172;6.682;2023-06-26T06:16:25;8.03;;;3.47;;
71610;SDS011;59459;51.172;6.682;2023-06-26T06:18:51;9.87;;;3.90;;
71610;SDS011;59459;51.172;6.682;2023-06-26T06:21:16;7.97;;;3.70;;
71610;SDS011;59459;51.172;6.682;2023-06-26T06:23:41;8.93;;;3.30;;
71610;SDS011;59459;51.172;6.682;2023-06-26T06:26:06;8.37;;;3.60;;
71610;SDS011;59459;51.172;6.682;2023-06-26T06:28:32;8.33;;;3.47;;
71610;SDS011;59459;51.172;6.682;2023-06-26T06:30:57;8.13;;;3.33;;
71610;SDS011;59459;51.172;6.682;2023-06-26T06:33:22;8.77;;;3.93;;
71610;SDS011;59459;51.172;6.682;2023-06-26T06:35:47;9.00;;;3.60;;
71610;SDS011;59459;51.172;6.682;2023-06-26T06:38:12;9.80;;;3.13;;
71610;SDS011;59459;51.172;6.682;2023-06-26T06:40:38;8.37;;;4.10;;
71610;SDS011;59459;51.172;6.682;2023-06-26T06:43:03;8.53;;;3.67;;
71610;SDS011;59459;51.172;6.682;2023-06-26T06:45:28;9.43;;;3.63;;
71610;SDS011;59459;51.172;6.682;2023-06-26T06:47:54;7.10;;;3.10;;
71610;SDS011;59459;51.172;6.682;2023-06-26T06:50:19;8.07;;;2.97;;
71610;SDS011;59459;51.172;6.682;2023-06-26T06:52:44;8.97;;;3.70;;
71610;SDS011;59459;51.172;6.682;2023-06-26T06:55:09;9.60;;;3.00;;
71610;SDS011;59459;51.172;6.682;2023-06-26T06:57:35;6.60;;;3.10;;
71610;SDS011;59459;51.172;6.682;2023-06-26T07:00:03;9.27;;;3.00;;
71610;SDS011;59459;51.172;6.682;2023-06-26T07:02:29;10.15;;;3.45;;
71610;SDS011;59459;51.172;6.682;2023-06-26T07:04:55;7.43;;;3.23;;
71610;SDS011;59459;51.172;6.682;2023-06-26T07:07:20;9.03;;;2.87;;
71610;SDS011;59459;51.172;6.682;2023-06-26T07:09:45;8.77;;;3.37;;
71610;SDS011;59459;51.172;6.682;2023-06-26T07:12:10;7.63;;;3.33;;
71610;SDS011;59459;51.172;6.682;2023-06-26T07:14:36;7.07;;;3.33;;
71610;SDS011;59459;51.172;6.682;2023-06-26T07:17:01;8.63;;;2.83;;
71610;SDS011;59459;51.172;6.682;2023-06-26T07:19:26;9.00;;;3.10;;
71610;SDS011;59459;51.172;6.682;2023-06-26T07:21:51;7.27;;;2.87;;
71610;SDS011;59459;51.172;6.682;2023-06-26T07:24:17;8.90;;;3.30;;
71610;SDS011;59459;51.172;6.682;2023-06-26T07:26:42;9.30;;;3.70;;
71610;SDS011;59459;51.172;6.682;2023-06-26T07:29:07;6.70;;;2.90;;
71610;SDS011;59459;51.172;6.682;2023-06-26T07:31:32;7.23;;;2.90;;
71610;SDS011;59459;51.172;6.682;2023-06-26T07:33:57;9.07;;;4.07;;
71610;SDS011;59459;51.172;6.682;2023-06-26T07:36:23;7.57;;;3.47;;
71610;SDS011;59459;51.172;6.682;2023-06-26T07:38:48;9.50;;;3.87;;
71610;SDS011;59459;51.172;6.682;2023-06-26T07:41:13;6.60;;;3.03;;
71610;SDS011;59459;51.172;6.682;2023-06-26T07:43:38;9.23;;;3.17;;
71610;SDS011;59459;51.172;6.682;2023-06-26T07:46:03;9.20;;;3.47;;
71610;SDS011;59459;51.172;6.682;2023-06-26T07:48:29;12.23;;;3.97;;
71610;SDS011;59459;51.172;6.682;2023-06-26T07:50:54;10.37;;;3.10;;
71610;SDS011;59459;51.172;6.682;2023-06-26T07:53:19;10.70;;;3.87;;
71610;SDS011;59459;51.172;6.682;2023-06-26T07:55:45;9.13;;;3.83;;
71610;SDS011;59459;51.172;6.682;2023-06-26T07:58:10;9.40;;;3.40;;
71610;SDS011;59459;51.172;6.682;2023-06-26T08:00:36;9.77;;;3.90;;
71610;SDS011;59459;51.172;6.682;2023-06-26T08:03:01;8.07;;;3.40;;
71610;SDS011;59459;51.172;6.682;2023-06-26T08:05:26;9.70;;;3.30;;
71610;SDS011;59459;51.172;6.682;2023-06-26T08:07:51;9.43;;;3.80;;
71610;SDS011;59459;51.172;6.682;2023-06-26T08:10:17;8.53;;;3.50;;
71610;SDS011;59459;51.172;6.682;2023-06-26T08:12:42;8.63;;;3.73;;
71610;SDS011;59459;51.172;6.682;2023-06-26T08:15:10;10.32;;;3.85;;
71610;SDS011;59459;51.172;6.682;2023-06-26T08:17:35;9.13;;;3.43;;
71610;SDS011;59459;51.172;6.682;2023-06-26T08:20:01;11.23;;;4.40;;
71610;SDS011;59459;51.172;6.682;2023-06-26T08:22:29;9.30;;;4.07;;
71610;SDS011;59459;51.172;6.682;2023-06-26T08:24:54;9.10;;;3.73;;
71610;SDS011;59459;51.172;6.682;2023-06-26T08:27:19;8.95;;;3.78;;
71610;SDS011;59459;51.172;6.682;2023-06-26T08:29:45;9.97;;;3.90;;
71610;SDS011;59459;51.172;6.682;2023-06-26T08:32:10;9.30;;;3.93;;
71610;SDS011;59459;51.172;6.682;2023-06-26T08:34:35;8.93;;;4.40;;
71610;SDS011;59459;51.172;6.682;2023-06-26T08:37:01;10.13;;;4.50;;
71610;SDS011;59459;51.172;6.682;2023-06-26T08:39:26;7.43;;;4.10;;
71610;SDS011;59459;51.172;6.682;2023-06-26T08:41:52;11.57;;;4.60;;
71610;SDS011;59459;51.172;6.682;2023-06-26T08:44:17;8.00;;;3.90;;
71610;SDS011;59459;51.172;6.682;2023-06-26T08:46:43;9.33;;;5.10;;
71610;SDS011;59459;51.172;6.682;2023-06-26T08:49:12;7.90;;;4.77;;
71610;SDS011;59459;51.172;6.682;2023-06-26T08:51:39;9.02;;;4.55;;
71610;SDS011;59459;51.172;6.682;2023-06-26T08:54:08;8.45;;;4.68;;
71610;SDS011;59459;51.172;6.682;2023-06-26T08:56:38;10.87;;;4.33;;
71610;SDS011;59459;51.172;6.682;2023-06-26T08:59:05;10.57;;;4.93;;
71610;SDS011;59459;51.172;6.682;2023-06-26T09:01:31;8.57;;;4.45;;
71610;SDS011;59459;51.172;6.682;2023-06-26T09:03:57;13.70;;;4.70;;
71610;SDS011;59459;51.172;6.682;2023-06-26T09:06:22;9.90;;;4.63;;
71610;SDS011;59459;51.172;6.682;2023-06-26T09:08:47;9.53;;;4.53;;
71610;SDS011;59459;51.172;6.682;2023-06-26T09:11:13;12.97;;;5.20;;
71610;SDS011;59459;51.172;6.682;2023-06-26T09:13:39;10.30;;;4.23;;
71610;SDS011;59459;51.172;6.682;2023-06-26T09:16:06;10.02;;;4.82;;
71610;SDS011;59459;51.172;6.682;2023-06-26T09:18:32;6.65;;;3.85;;
71610;SDS011;59459;51.172;6.682;2023-06-26T09:20:57;7.70;;;4.40;;
71610;SDS011;59459;51.172;6.682;2023-06-26T09:23:22;9.52;;;4.70;;
71610;SDS011;59459;51.172;6.682;2023-06-26T09:25:48;11.30;;;4.40;;
71610;SDS011;59459;51.172;6.682;2023-06-26T09:28:13;8.07;;;4.00;;
71610;SDS011;59459;51.172;6.682;2023-06-26T09:30:39;7.23;;;3.80;;
71610;SDS011;59459;51.172;6.682;2023-06-26T09:33:17;9.30;;;4.43;;
71610;SDS011;59459;51.172;6.682;2023-06-26T09:35:45;10.60;;;4.63;;
71610;SDS011;59459;51.172;6.682;2023-06-26T09:38:11;12.05;;;5.03;;
71610;SDS011;59459;51.172;6.682;2023-06-26T09:40:37;13.10;;;4.70;;
71610;SDS011;59459;51.172;6.682;2023-06-26T09:43:06;9.75;;;3.80;;
71610;SDS011;59459;51.172;6.682;2023-06-26T09:45:35;12.45;;;4.47;;
71610;SDS011;59459;51.172;6.682;2023-06-26T09:48:03;7.70;;;3.78;;
71610;SDS011;59459;51.172;6.682;2023-06-26T09:50:29;10.10;;;3.50;;
71610;SDS011;59459;51.172;6.682;2023-06-26T09:52:55;7.68;;;3.00;;
71610;SDS011;59459;51.172;6.682;2023-06-26T09:55:20;8.80;;;2.70;;
71610;SDS011;59459;51.172;6.682;2023-06-26T09:57:49;7.65;;;2.80;;
71610;SDS011;59459;51.172;6.682;2023-06-26T10:00:14;8.90;;;3.10;;
71610;SDS011;59459;51.172;6.682;2023-06-26T10:02:40;7.67;;;3.20;;
71610;SDS011;59459;51.172;6.682;2023-06-26T10:05:05;6.33;;;3.03;;
71610;SDS011;59459;51.172;6.682;2023-06-26T10:07:30;9.23;;;3.50;;
71610;SDS011;59459;51.172;6.682;2023-06-26T10:09:57;7.22;;;3.17;;
71610;SDS011;59459;51.172;6.682;2023-06-26T10:12:27;7.97;;;3.17;;
71610;SDS011;59459;51.172;6.682;2023-06-26T10:14:52;6.88;;;2.65;;
71610;SDS011;59459;51.172;6.682;2023-06-26T10:17:21;6.35;;;3.00;;
71610;SDS011;59459;51.172;6.682;2023-06-26T10:19:46;8.93;;;3.88;;
71610;SDS011;59459;51.172;6.682;2023-06-26T10:22:16;4.87;;;2.17;;
71610;SDS011;59459;51.172;6.682;2023-06-26T10:24:42;6.38;;;2.50;;
71610;SDS011;59459;51.172;6.682;2023-06-26T10:27:10;7.63;;;2.97;;
71610;SDS011;59459;51.172;6.682;2023-06-26T10:29:38;7.57;;;3.13;;
71610;SDS011;59459;51.172;6.682;2023-06-26T10:32:03;6.90;;;2.90;;
71610;SDS011;59459;51.172;6.682;2023-06-26T10:34:29;5.90;;;2.70;;
71610;SDS011;59459;51.172;6.682;2023-06-26T10:37:01;7.67;;;3.10;;
71610;SDS011;59459;51.172;6.682;2023-06-26T10:39:31;6.05;;;2.53;;
71610;SDS011;59459;51.172;6.682;2023-06-26T10:42:02;5.93;;;2.13;;
71610;SDS011;59459;51.172;6.682;2023-06-26T10:44:39;4.68;;;1.80;;
71610;SDS011;59459;51.172;6.682;2023-06-26T10:47:05;8.40;;;2.35;;
71610;SDS011;59459;51.172;6.682;2023-06-26T10:49:30;4.50;;;1.90;;
71610;SDS011;59459;51.172;6.682;2023-06-26T10:51:55;4.73;;;1.60;;
71610;SDS011;59459;51.172;6.682;2023-06-26T10:54:28;4.60;;;1.90;;
71610;SDS011;59459;51.172;6.682;2023-06-26T10:56:56;4.75;;;1.38;;
71610;SDS011;59459;51.172;6.682;2023-06-26T10:59:25;3.55;;;1.50;;
71610;SDS011;59459;51.172;6.682;2023-06-26T11:01:57;5.63;;;1.95;;
71610;SDS011;59459;51.172;6.682;2023-06-26T11:04:36;3.20;;;1.42;;
71610;SDS011;59459;51.172;6.682;2023-06-26T11:09:53;5.55;;;2.08;;
71610;SDS011;59459;51.172;6.682;2023-06-26T11:12:33;3.92;;;1.60;;
71610;SDS011;59459;51.172;6.682;2023-06-26T11:14:59;5.97;;;2.08;;
71610;SDS011;59459;51.172;6.682;2023-06-26T11:17:24;3.10;;;1.37;;
71610;SDS011;59459;51.172;6.682;2023-06-26T11:19:49;2.37;;;1.30;;
71610;SDS011;59459;51.172;6.682;2023-06-26T11:22:15;3.80;;;1.40;;
71610;SDS011;59459;51.172;6.682;2023-06-26T11:24:40;3.73;;;1.43;;
71610;SDS011;59459;51.172;6.682;2023-06-26T11:27:06;4.18;;;1.50;;
71610;SDS011;59459;51.172;6.682;2023-06-26T11:29:32;4.37;;;1.73;;
71610;SDS011;59459;51.172;6.682;2023-06-26T11:32:00;4.57;;;1.75;;
71610;SDS011;59459;51.172;6.682;2023-06-26T11:34:29;3.50;;;1.83;;
71610;SDS011;59459;51.172;6.682;2023-06-26T11:36:56;3.80;;;1.63;;
71610;SDS011;59459;51.172;6.682;2023-06-26T11:39:21;3.97;;;1.52;;
71610;SDS011;59459;51.172;6.682;2023-06-26T11:41:46;4.37;;;1.63;;
71610;SDS011;59459;51.172;6.682;2023-06-26T11:44:11;5.57;;;1.47;;
71610;SDS011;59459;51.172;6.682;2023-06-26T11:46:39;8.10;;;1.75;;
71610;SDS011;59459;51.172;6.682;2023-06-26T11:49:04;6.43;;;1.97;;
71610;SDS011;59459;51.172;6.682;2023-06-26T11:51:30;4.53;;;1.50;;
71610;SDS011;59459;51.172;6.682;2023-06-26T11:53:55;5.47;;;1.80;;
71610;SDS011;59459;51.172;6.682;2023-06-26T11:56:20;6.30;;;2.10;;
71610;SDS011;59459;51.172;6.682;2023-06-26T12:01:41;3.45;;;1.63;;
71610;SDS011;59459;51.172;6.682;2023-06-26T12:04:07;6.00;;;2.37;;
71610;SDS011;59459;51.172;6.682;2023-06-26T12:06:39;3.80;;;1.45;;
71610;SDS011;59459;51.172;6.682;2023-06-26T12:09:06;4.45;;;1.55;;
71610;SDS011;59459;51.172;6.682;2023-06-26T12:11:32;4.75;;;1.38;;
71610;SDS011;59459;51.172;6.682;2023-06-26T12:13:58;3.60;;;1.60;;
71610;SDS011;59459;51.172;6.682;2023-06-26T12:16:24;3.38;;;1.40;;
71610;SDS011;59459;51.172;6.682;2023-06-26T12:18:50;4.00;;;1.40;;
71610;SDS011;59459;51.172;6.682;2023-06-26T12:21:49;8.93;;;1.50;;
71610;SDS011;59459;51.172;6.682;2023-06-26T12:24:09;2.90;;;1.55;;
71610;SDS011;59459;51.172;6.682;2023-06-26T12:26:35;3.60;;;1.42;;
71610;SDS011;59459;51.172;6.682;2023-06-26T12:31:29;4.93;;;1.20;;
71610;SDS011;59459;51.172;6.682;2023-06-26T12:33:56;2.45;;;1.20;;
71610;SDS011;59459;51.172;6.682;2023-06-26T12:36:21;4.60;;;1.30;;
71610;SDS011;59459;51.172;6.682;2023-06-26T12:38:48;3.37;;;1.23;;
71610;SDS011;59459;51.172;6.682;2023-06-26T12:41:13;3.42;;;1.30;;
71610;SDS011;59459;51.172;6.682;2023-06-26T12:43:39;2.72;;;0.90;;
71610;SDS011;59459;51.172;6.682;2023-06-26T12:46:05;3.07;;;1.07;;
71610;SDS011;59459;51.172;6.682;2023-06-26T12:48:36;3.40;;;1.17;;
71610;SDS011;59459;51.172;6.682;2023-06-26T12:51:12;2.72;;;1.25;;
71610;SDS011;59459;51.172;6.682;2023-06-26T12:53:38;5.63;;;1.60;;
71610;SDS011;59459;51.172;6.682;2023-06-26T12:56:07;3.65;;;1.77;;
71610;SDS011;59459;51.172;6.682;2023-06-26T12:58:33;3.73;;;1.50;;
71610;SDS011;59459;51.172;6.682;2023-06-26T13:00:58;4.25;;;1.30;;
71610;SDS011;59459;51.172;6.682;2023-06-26T13:03:23;4.03;;;0.90;;
71610;SDS011;59459;51.172;6.682;2023-06-26T13:05:49;3.67;;;1.23;;
71610;SDS011;59459;51.172;6.682;2023-06-26T13:08:14;5.47;;;1.37;;
71610;SDS011;59459;51.172;6.682;2023-06-26T13:10:42;3.78;;;1.15;;
71610;SDS011;59459;51.172;6.682;2023-06-26T13:13:07;3.30;;;1.40;;
71610;SDS011;59459;51.172;6.682;2023-06-26T13:15:33;3.90;;;1.42;;
71610;SDS011;59459;51.172;6.682;2023-06-26T13:17:58;3.63;;;1.10;;
71610;SDS011;59459;51.172;6.682;2023-06-26T13:20:23;3.53;;;1.30;;
71610;SDS011;59459;51.172;6.682;2023-06-26T13:22:49;2.50;;;1.17;;
71610;SDS011;59459;51.172;6.682;2023-06-26T13:25:14;2.07;;;0.90;;
71610;SDS011;59459;51.172;6.682;2023-06-26T13:27:39;3.13;;;1.30;;
71610;SDS011;59459;51.172;6.682;2023-06-26T13:30:05;3.47;;;1.53;;
71610;SDS011;59459;51.172;6.682;2023-06-26T13:32:30;4.43;;;1.67;;
71610;SDS011;59459;51.172;6.682;2023-06-26T13:34:55;2.70;;;1.10;;
71610;SDS011;59459;51.172;6.682;2023-06-26T13:37:22;2.40;;;1.00;;
71610;SDS011;59459;51.172;6.682;2023-06-26T13:39:48;3.63;;;1.30;;
71610;SDS011;59459;51.172;6.682;2023-06-26T13:42:15;2.63;;;1.10;;
71610;SDS011;59459;51.172;6.682;2023-06-26T13:44:40;2.90;;;1.17;;
71610;SDS011;59459;51.172;6.682;2023-06-26T13:47:05;2.80;;;1.30;;
71610;SDS011;59459;51.172;6.682;2023-06-26T13:49:31;1.90;;;1.00;;
71610;SDS011;59459;51.172;6.682;2023-06-26T13:51:56;2.17;;;1.00;;
71610;SDS011;59459;51.172;6.682;2023-06-26T13:54:21;4.97;;;1.40;;
71610;SDS011;59459;51.172;6.682;2023-06-26T13:56:46;3.23;;;1.03;;
71610;SDS011;59459;51.172;6.682;2023-06-26T13:59:12;2.87;;;1.33;;
71610;SDS011;59459;51.172;6.682;2023-06-26T14:01:37;3.83;;;1.40;;
71610;SDS011;59459;51.172;6.682;2023-06-26T14:04:03;2.38;;;1.15;;
71610;SDS011;59459;51.172;6.682;2023-06-26T14:06:28;4.27;;;1.30;;
71610;SDS011;59459;51.172;6.682;2023-06-26T14:08:55;3.00;;;1.02;;
71610;SDS011;59459;51.172;6.682;2023-06-26T14:11:20;2.67;;;0.87;;
71610;SDS011;59459;51.172;6.682;2023-06-26T14:13:47;3.88;;;1.40;;
71610;SDS011;59459;51.172;6.682;2023-06-26T14:16:12;2.17;;;1.20;;
71610;SDS011;59459;51.172;6.682;2023-06-26T14:18:38;3.93;;;1.20;;
71610;SDS011;59459;51.172;6.682;2023-06-26T14:21:03;3.07;;;1.30;;
71610;SDS011;59459;51.172;6.682;2023-06-26T14:23:29;3.20;;;1.60;;
71610;SDS011;59459;51.172;6.682;2023-06-26T14:25:54;1.87;;;0.97;;
71610;SDS011;59459;51.172;6.682;2023-06-26T14:28:19;3.70;;;1.20;;
71610;SDS011;59459;51.172;6.682;2023-06-26T14:30:44;3.20;;;1.03;;
71610;SDS011;59459;51.172;6.682;2023-06-26T14:33:10;2.90;;;1.07;;
71610;SDS011;59459;51.172;6.682;2023-06-26T14:35:35;3.05;;;1.20;;
71610;SDS011;59459;51.172;6.682;2023-06-26T14:38:00;4.33;;;1.60;;
71610;SDS011;59459;51.172;6.682;2023-06-26T14:40:26;4.03;;;1.27;;
71610;SDS011;59459;51.172;6.682;2023-06-26T14:42:51;2.70;;;1.53;;
71610;SDS011;59459;51.172;6.682;2023-06-26T14:45:18;2.85;;;1.27;;
71610;SDS011;59459;51.172;6.682;2023-06-26T14:47:43;2.60;;;1.30;;
71610;SDS011;59459;51.172;6.682;2023-06-26T14:50:08;2.20;;;1.07;;